Time;durP1;ratioP1;P1;durP2;ratioP2;P2;SDS_P1;SDS_P2;PMS_P1;PMS_P2;Temp;Humidity;BMP_temperature;BMP_pressure;BME280_temperature;BME280_humidity;BME280_pressure;Samples;Min_cycle;Max_cycle;Signal;HPM_P1;HPM_P2
2021/12/16 00:02:14;;;;;;;62.72;40.58;;;;;;;8.14;91.22;103337.38;4978756;28;20101;-91
2021/12/16 00:05:14;;;;;;;68.85;42.60;;;;;;;8.09;91.35;103326.00;4973345;28;20022;-91
2021/12/16 00:07:33;;;;;;;66.72;41.38;;;;;;;8.10;91.23;103327.75;4980265;28;20113;-91
2021/12/16 00:10:08;;;;;;;64.05;41.45;;;;;;;8.10;91.21;103333.84;4957514;28;20456;-91
2021/12/16 00:34:16;;;;;;;61.50;41.85;;;;;;;7.96;91.39;103332.59;4975264;28;20483;-91
2021/12/16 00:36:44;;;;;;;66.75;40.50;;;;;;;7.95;91.73;103326.53;4974851;28;20031;-90
2021/12/16 00:39:15;;;;;;;63.35;40.67;;;;;;;7.99;91.36;103341.34;4957457;28;20035;-91
2021/12/16 00:41:43;;;;;;;65.97;41.28;;;;;;;7.99;91.51;103333.56;4988269;28;20035;-91
2021/12/16 00:44:35;;;;;;;66.30;42.17;;;;;;;8.00;91.45;103337.03;4975083;28;20023;-91
2021/12/16 00:47:51;;;;;;;65.07;39.88;;;;;;;7.99;91.68;103341.34;4974345;28;20061;-91
2021/12/16 00:49:50;;;;;;;61.35;39.67;;;;;;;8.01;91.68;103344.84;4965272;28;20059;-90
2021/12/16 00:58:04;;;;;;;61.42;39.33;;;;;;;7.98;91.47;103329.22;4961505;28;20038;-91
2021/12/16 01:00:31;;;;;;;60.00;39.60;;;;;;;7.99;91.64;103324.91;4957473;28;20035;-91
2021/12/16 01:03:24;;;;;;;61.60;40.05;;;;;;;8.01;91.74;103331.91;4961689;28;20503;-90
2021/12/16 01:57:11;;;;;;;58.95;40.00;;;;;;;8.02;91.79;103377.72;4974271;28;20034;-92
2021/12/16 01:59:39;;;;;;;55.63;37.35;;;;;;;7.96;91.82;103364.59;4970590;28;20519;-90
2021/12/16 02:02:34;;;;;;;55.70;38.15;;;;;;;7.98;91.95;103378.47;4955687;28;20167;-91
2021/12/16 02:08:06;;;;;;;59.65;38.30;;;;;;;7.95;91.73;103370.59;4975943;28;20090;-90
2021/12/16 02:10:37;;;;;;;60.17;38.50;;;;;;;8.01;92.04;103383.75;4978306;28;20058;-90
2021/12/16 02:13:30;;;;;;;57.92;37.47;;;;;;;8.01;91.91;103386.34;4957152;28;20026;-91
2021/12/16 02:32:39;;;;;;;53.95;36.95;;;;;;;8.04;91.50;103394.16;4973857;28;20043;-91
2021/12/16 02:37:31;;;;;;;57.83;38.28;;;;;;;8.03;91.81;103400.19;4973460;28;20042;-90
2021/12/16 02:39:57;;;;;;;59.55;37.83;;;;;;;8.05;91.65;103408.88;4973203;28;20031;-91
2021/12/16 02:42:33;;;;;;;56.45;38.40;;;;;;;7.98;91.69;103396.63;4972785;28;20037;-90
2021/12/16 02:50:20;;;;;;;55.85;37.05;;;;;;;8.05;91.45;103402.84;4973084;28;20110;-91
2021/12/16 02:52:46;;;;;;;56.85;36.95;;;;;;;8.03;91.26;103399.31;4972437;28;20030;-91
2021/12/16 02:55:15;;;;;;;53.65;36.38;;;;;;;8.09;91.62;103412.47;4955620;28;20030;-91
2021/12/16 02:57:49;;;;;;;54.40;36.42;;;;;;;8.04;91.44;103401.94;4973171;28;20400;-91
2021/12/16 03:00:16;;;;;;;54.42;35.90;;;;;;;8.04;91.53;103396.75;4987138;28;20034;-91
2021/12/16 03:02:46;;;;;;;53.15;36.05;;;;;;;8.03;91.63;103392.41;4955399;28;20026;-90
2021/12/16 03:05:12;;;;;;;53.25;36.65;;;;;;;8.01;91.25;103388.94;4972843;28;20027;-91
2021/12/16 03:07:38;;;;;;;53.00;35.45;;;;;;;8.04;91.52;103388.97;4956355;28;20023;-90
2021/12/16 03:13:10;;;;;;;54.92;36.35;;;;;;;7.99;91.44;103390.59;4973487;28;20050;-91
2021/12/16 03:18:32;;;;;;;54.05;36.22;;;;;;;8.00;91.56;103391.47;4975962;28;20061;-90
2021/12/16 03:21:06;;;;;;;52.80;36.35;;;;;;;8.04;91.44;103396.75;4971682;28;20022;-91
2021/12/16 03:31:56;;;;;;;57.05;34.72;;;;;;;7.99;91.23;103400.97;4981533;28;20031;-91
2021/12/16 03:37:14;;;;;;;51.72;36.17;;;;;;;7.95;91.53;103396.53;4973461;28;20042;-91
2021/12/16 03:39:46;;;;;;;56.97;36.30;;;;;;;7.99;91.38;103400.06;4968585;28;20117;-90
2021/12/16 03:42:15;;;;;;;55.60;37.33;;;;;;;7.97;91.09;103393.97;4965047;28;20103;-90
2021/12/16 03:44:56;;;;;;;52.72;35.65;;;;;;;7.95;91.58;103396.53;4959009;28;20023;-91
2021/12/16 03:47:28;;;;;;;51.08;35.45;;;;;;;7.97;91.46;103404.34;4958586;28;20047;-90
2021/12/16 03:49:54;;;;;;;49.95;35.33;;;;;;;7.92;91.29;103405.94;4976385;28;20153;-90
2021/12/16 03:52:20;;;;;;;53.50;36.50;;;;;;;7.89;91.52;103398.94;4976788;28;20030;-91
2021/12/16 03:54:52;;;;;;;53.05;36.67;;;;;;;7.87;91.77;103403.22;4980813;28;20027;-91
2021/12/16 03:57:21;;;;;;;52.90;35.92;;;;;;;7.95;91.62;103417.28;4976549;28;20483;-91
2021/12/16 03:59:48;;;;;;;57.95;36.33;;;;;;;7.87;91.87;103409.28;4975850;28;20035;-91
2021/12/16 04:02:23;;;;;;;56.13;37.42;;;;;;;7.90;92.06;103424.94;4976224;28;20038;-90
2021/12/16 04:04:51;;;;;;;54.25;35.30;;;;;;;7.86;91.86;103417.00;4985693;28;20052;-91
2021/12/16 04:07:19;;;;;;;52.20;35.35;;;;;;;7.89;91.84;103422.28;4977525;28;20062;-92
2021/12/16 04:09:44;;;;;;;56.85;36.92;;;;;;;7.82;91.92;103410.88;4976204;28;20035;-90
2021/12/16 04:12:12;;;;;;;55.95;37.50;;;;;;;7.85;92.04;103417.88;4976633;28;20035;-90
2021/12/16 04:14:41;;;;;;;77.57;47.78;;;;;;;7.82;91.96;103420.38;4973282;28;20034;-90
2021/12/16 04:17:08;;;;;;;61.42;37.45;;;;;;;7.86;91.88;103427.38;4975837;28;20276;-90
2021/12/16 04:19:35;;;;;;;60.47;36.38;;;;;;;7.77;92.31;103415.03;4969317;28;20062;-91
2021/12/16 04:22:06;;;;;;;55.85;37.95;;;;;;;7.82;92.26;103422.97;4975715;28;20030;-90
2021/12/16 04:24:32;;;;;;;61.22;38.35;;;;;;;7.74;92.18;103418.44;4976202;28;20031;-90
2021/12/16 04:26:58;;;;;;;57.45;36.65;;;;;;;7.76;91.98;103421.09;4975707;28;20357;-90
2021/12/16 04:29:25;;;;;;;54.55;36.60;;;;;;;7.67;91.93;103400.97;4958238;28;20034;-90
2021/12/16 04:31:55;;;;;;;51.70;37.13;;;;;;;7.64;91.81;103408.66;4975679;28;20054;-91
2021/12/16 04:34:22;;;;;;;53.85;37.85;;;;;;;7.57;91.71;103402.44;4982451;28;20113;-91
2021/12/16 04:36:47;;;;;;;52.70;37.08;;;;;;;7.57;91.62;103414.50;4964488;28;20353;-90
2021/12/16 04:39:17;;;;;;;53.97;35.78;;;;;;;7.46;91.61;103405.53;4958927;28;20107;-91
2021/12/16 04:41:44;;;;;;;57.25;36.50;;;;;;;7.45;91.60;103407.25;4957412;28;20030;-91
2021/12/16 04:44:12;;;;;;;54.33;37.47;;;;;;;7.39;91.60;103410.53;4977107;28;20030;-90
2021/12/16 04:46:37;;;;;;;61.72;44.15;;;;;;;7.40;91.97;103412.28;4974700;28;20047;-91
2021/12/16 04:49:05;;;;;;;59.15;41.33;;;;;;;7.35;91.90;103413.84;4975870;28;20023;-90
2021/12/16 04:51:33;;;;;;;58.65;41.30;;;;;;;7.31;91.79;103417.22;4958082;28;20492;-90
2021/12/16 04:53:59;;;;;;;60.35;40.85;;;;;;;7.27;91.89;103412.78;4974758;28;20022;-91
2021/12/16 04:56:25;;;;;;;60.75;40.40;;;;;;;7.25;92.77;103414.44;4978350;28;20548;-91
2021/12/16 04:58:53;;;;;;;60.50;40.53;;;;;;;7.23;92.61;103418.69;4980396;28;20050;-89
2021/12/16 05:01:19;;;;;;;60.78;37.50;;;;;;;7.21;92.76;103415.16;4958082;28;20030;-90
2021/12/16 05:03:44;;;;;;;57.30;42.38;;;;;;;7.20;92.84;103416.88;4959171;28;20027;-91
2021/12/16 05:06:10;;;;;;;61.00;42.67;;;;;;;7.12;92.68;103411.47;4975390;28;20041;-91
2021/12/16 05:08:37;;;;;;;61.03;43.92;;;;;;;7.08;92.79;103413.94;4958045;28;20030;-90
2021/12/16 05:11:04;;;;;;;62.28;43.35;;;;;;;7.13;92.94;103418.44;4975725;28;20034;-91
2021/12/16 05:13:31;;;;;;;60.45;43.88;;;;;;;7.10;92.91;103428.69;4956936;28;20186;-90
2021/12/16 05:16:01;;;;;;;60.13;41.88;;;;;;;7.10;93.21;103438.13;4974442;28;20105;-91
2021/12/16 05:18:32;;;;;;;61.97;41.25;;;;;;;7.06;93.22;103423.38;4958131;28;20030;-90
2021/12/16 05:20:59;;;;;;;62.30;43.90;;;;;;;7.07;93.29;103428.56;4981492;28;20030;-90
2021/12/16 05:28:40;;;;;;;58.30;39.83;;;;;;;6.96;93.20;103427.38;4974666;28;20034;-90
2021/12/16 05:31:05;;;;;;;62.63;39.28;;;;;;;6.96;93.39;103424.78;4956323;28;20037;-90
2021/12/16 05:33:31;;;;;;;62.17;37.88;;;;;;;6.97;93.37;103442.06;4976543;28;20030;-90
2021/12/16 05:35:57;;;;;;;39.80;29.95;;;;;;;6.90;92.31;103446.19;4974550;28;20033;-90
2021/12/16 05:38:25;;;;;;;39.17;28.58;;;;;;;6.75;91.31;103456.00;4974864;28;20018;-90
2021/12/16 05:40:52;;;;;;;40.08;28.10;;;;;;;6.62;90.42;103458.22;4975659;28;20187;-89
2021/12/16 05:43:22;;;;;;;71.55;27.33;;;;;;;6.49;90.48;103449.16;4964050;28;20037;-90
2021/12/16 05:45:48;;;;;;;37.33;23.33;;;;;;;6.38;89.04;103453.09;4955855;28;20043;-90
2021/12/16 05:48:16;;;;;;;22.60;18.42;;;;;;;6.27;88.08;103457.03;4957070;28;20041;-89
2021/12/16 05:50:45;;;;;;;29.33;21.13;;;;;;;6.22;88.61;103455.16;4964024;28;20053;-90
2021/12/16 05:53:10;;;;;;;41.55;21.45;;;;;;;6.12;88.68;103468.59;4973625;28;20022;-90
2021/12/16 05:55:37;;;;;;;27.23;19.50;;;;;;;6.07;88.25;103470.13;4973371;28;20129;-91
2021/12/16 05:58:06;;;;;;;71.05;18.58;;;;;;;5.88;86.61;103473.72;4957811;28;20101;-90
2021/12/16 06:00:35;;;;;;;73.00;16.70;;;;;;;5.80;85.88;103476.03;4954736;28;20034;-90
2021/12/16 06:03:01;;;;;;;52.80;15.90;;;;;;;5.77;86.28;103483.66;4972500;28;20365;-91
2021/12/16 06:05:26;;;;;;;115.65;13.45;;;;;;;5.65;87.29;103470.28;4965144;28;20029;-91
2021/12/16 06:07:53;;;;;;;172.52;13.70;;;;;;;5.60;88.28;103473.59;4959695;28;20030;-91
2021/12/16 06:13:04;;;;;;;89.22;18.02;;;;;;;5.69;90.38;103488.56;4974389;28;20463;-91
2021/12/16 06:26:35;;;;;;;91.22;13.55;;;;;;;5.36;89.37;103478.69;4972667;28;20046;-91
2021/12/16 06:29:03;;;;;;;65.13;13.60;;;;;;;5.43;89.31;103492.72;4955591;28;20029;-92
2021/12/16 06:31:28;;;;;;;165.27;17.98;;;;;;;5.38;89.86;103486.50;4973200;28;20026;-91
2021/12/16 06:33:54;;;;;;;101.47;17.45;;;;;;;5.40;90.03;103495.19;4973392;28;20031;-92
2021/12/16 06:36:19;;;;;;;42.65;14.90;;;;;;;5.35;89.22;103488.94;4972820;28;20109;-91
2021/12/16 06:38:44;;;;;;;24.45;13.73;;;;;;;5.29;88.22;103495.66;4962795;28;20506;-91
2021/12/16 06:41:10;;;;;;;26.40;12.23;;;;;;;5.22;88.27;103496.22;4992035;28;20027;-91
2021/12/16 06:43:36;;;;;;;56.03;14.90;;;;;;;5.14;87.92;103498.50;4979468;28;20061;-92
2021/12/16 06:46:05;;;;;;;39.50;15.10;;;;;;;5.20;87.47;103497.84;4973979;28;20034;-92
2021/12/16 06:48:34;;;;;;;54.85;12.48;;;;;;;5.15;86.56;103499.38;4955407;28;20034;-92
2021/12/16 06:51:05;;;;;;;33.33;11.48;;;;;;;5.05;86.58;103499.81;4956747;28;20015;-92
2021/12/16 06:53:45;;;;;;;16.33;10.70;;;;;;;5.00;86.29;103495.34;4956480;28;20146;-92
2021/12/16 06:56:17;;;;;;;96.88;12.05;;;;;;;5.01;86.75;103491.97;4956765;28;20492;-91
2021/12/16 06:58:48;;;;;;;147.80;16.10;;;;;;;4.96;88.16;103490.88;4955200;28;20031;-91
2021/12/16 07:01:31;;;;;;;27.88;13.68;;;;;;;4.94;87.88;103497.72;4973407;28;20031;-91
2021/12/16 07:03:58;;;;;;;107.70;14.98;;;;;;;4.82;87.17;103497.19;4975089;28;20023;-91
2021/12/16 07:06:27;;;;;;;64.68;15.40;;;;;;;4.88;87.96;103501.69;4955309;28;20078;-91
2021/12/16 07:08:57;;;;;;;70.05;16.17;;;;;;;4.83;87.88;103502.41;4973148;28;20023;-91
2021/12/16 07:11:23;;;;;;;86.40;15.57;;;;;;;4.78;87.66;103519.38;4973127;28;20026;-91
2021/12/16 07:14:00;;;;;;;96.78;15.48;;;;;;;4.69;87.66;103514.72;4958331;28;20495;-91
2021/12/16 07:16:28;;;;;;;99.13;17.33;;;;;;;4.71;87.99;103519.94;4958946;28;20030;-92
2021/12/16 07:18:54;;;;;;;79.47;16.48;;;;;;;4.78;88.40;103536.59;4976544;28;20023;-91
2021/12/16 07:21:20;;;;;;;55.45;15.25;;;;;;;4.71;88.00;103532.84;4978922;28;20019;-91
2021/12/16 07:23:45;;;;;;;87.32;16.30;;;;;;;4.68;88.21;103543.91;4979409;28;20498;-92
2021/12/16 07:26:10;;;;;;;78.72;14.68;;;;;;;4.66;88.09;103555.84;4984638;28;20070;-91
2021/12/16 07:28:36;;;;;;;114.55;15.27;;;;;;;4.66;88.13;103555.84;4959017;28;20391;-92
2021/12/16 07:31:02;;;;;;;156.15;19.15;;;;;;;4.70;89.40;103556.84;4977746;28;20488;-91
2021/12/16 07:33:27;;;;;;;55.47;16.42;;;;;;;4.69;88.93;103550.84;4960823;28;20038;-91
2021/12/16 07:35:53;;;;;;;72.77;15.33;;;;;;;4.65;88.65;103564.41;4959331;28;20023;-91
2021/12/16 07:38:19;;;;;;;62.72;15.63;;;;;;;4.63;88.54;103562.59;4965055;28;20546;-91
2021/12/16 07:40:47;;;;;;;65.53;15.87;;;;;;;4.64;88.42;103580.69;4959795;28;20019;-91
2021/12/16 07:43:25;;;;;;;98.63;15.88;;;;;;;4.60;88.08;103576.25;4959384;28;20385;-92
2021/12/16 07:45:54;;;;;;;66.18;16.33;;;;;;;4.61;88.40;103592.56;4985993;28;20046;-91
2021/12/16 07:48:21;;;;;;;83.73;16.17;;;;;;;4.63;88.80;103596.97;4978237;28;20031;-92
2021/12/16 07:50:48;;;;;;;66.23;16.27;;;;;;;4.57;88.59;103586.41;4988950;28;20026;-92
2021/12/16 07:53:14;;;;;;;44.90;15.88;;;;;;;4.64;88.74;103603.91;4959441;28;20030;-92
2021/12/16 07:55:42;;;;;;;70.97;16.23;;;;;;;4.63;88.52;103604.72;4975880;28;20023;-91
2021/12/16 07:58:09;;;;;;;49.63;15.80;;;;;;;4.64;88.33;103609.06;4983519;28;20018;-91
2021/12/16 08:00:34;;;;;;;49.50;15.98;;;;;;;4.66;88.08;103603.97;4988143;28;20054;-92
2021/12/16 08:03:02;;;;;;;79.90;16.83;;;;;;;4.68;88.35;103600.63;4979806;28;20072;-92
2021/12/16 08:05:32;;;;;;;85.47;17.67;;;;;;;4.64;88.84;103605.59;4968138;28;20476;-92
2021/12/16 08:07:57;;;;;;;46.07;17.50;;;;;;;4.70;89.14;103629.97;4975042;28;20030;-90
2021/12/16 08:10:24;;;;;;;40.17;17.08;;;;;;;4.69;89.38;103627.31;4975696;28;20389;-91
2021/12/16 08:12:50;;;;;;;69.47;15.77;;;;;;;4.68;89.14;103625.56;4958114;28;20029;-90
2021/12/16 08:15:16;;;;;;;97.07;19.57;;;;;;;4.66;89.53;103622.91;4967547;28;20483;-91
2021/12/16 08:17:43;;;;;;;85.10;17.77;;;;;;;4.64;89.35;103624.53;4982268;28;20030;-91
2021/12/16 08:20:10;;;;;;;111.07;19.13;;;;;;;4.59;89.37;103609.66;4985592;28;20045;-90
2021/12/16 08:22:36;;;;;;;94.80;19.63;;;;;;;4.61;89.52;103632.13;4981822;28;20053;-91
2021/12/16 08:25:01;;;;;;;64.90;18.60;;;;;;;4.66;89.66;103638.38;4975898;28;20499;-90
2021/12/16 08:27:27;;;;;;;58.37;18.40;;;;;;;4.69;89.80;103638.50;4959957;28;20038;-90
2021/12/16 08:29:52;;;;;;;77.43;19.27;;;;;;;4.75;89.84;103642.19;4976090;28;20015;-91
2021/12/16 08:32:17;;;;;;;58.75;19.20;;;;;;;4.75;90.16;103643.06;4975528;28;20022;-91
2021/12/16 08:34:45;;;;;;;64.00;18.75;;;;;;;4.82;90.10;103649.34;4977503;28;20042;-91
2021/12/16 08:37:14;;;;;;;38.22;19.02;;;;;;;4.84;90.25;103648.63;4959924;28;20479;-91
2021/12/16 08:39:40;;;;;;;67.38;18.40;;;;;;;4.81;90.26;103638.16;4988069;28;20019;-91
2021/12/16 08:42:09;;;;;;;50.60;18.95;;;;;;;4.86;89.97;103659.00;4959403;28;20030;-91
2021/12/16 08:44:35;;;;;;;52.40;18.48;;;;;;;4.91;90.02;103662.66;4964591;28;20025;-91
2021/12/16 08:47:06;;;;;;;59.60;18.65;;;;;;;4.93;90.02;103668.78;4967289;28;20047;-91
2021/12/16 08:49:31;;;;;;;44.05;18.27;;;;;;;4.96;89.97;103668.03;4961360;28;20436;-91
2021/12/16 08:52:01;;;;;;;40.93;18.93;;;;;;;4.97;90.40;103670.66;4976105;28;20025;-91
2021/12/16 08:54:27;;;;;;;40.88;18.88;;;;;;;4.96;90.48;103656.00;4976670;28;20031;-91
2021/12/16 08:56:53;;;;;;;49.08;20.00;;;;;;;5.05;90.38;103667.53;4981303;28;20049;-91
2021/12/16 08:59:20;;;;;;;75.45;20.95;;;;;;;5.04;90.75;103661.47;4981433;28;20029;-91
2021/12/16 09:01:50;;;;;;;51.25;20.92;;;;;;;5.10;91.05;103673.78;4977240;28;20484;-91
2021/12/16 09:04:16;;;;;;;58.83;22.02;;;;;;;5.10;90.82;103677.25;4963686;28;20026;-92
2021/12/16 09:06:43;;;;;;;49.75;21.88;;;;;;;5.09;91.20;103669.44;4980616;28;20036;-91
2021/12/16 09:09:09;;;;;;;65.47;20.90;;;;;;;5.20;90.91;103681.09;4971615;28;20054;-91
2021/12/16 09:11:40;;;;;;;53.00;20.92;;;;;;;5.14;90.74;103671.41;4965322;28;20116;-93
2021/12/16 09:14:07;;;;;;;53.90;20.90;;;;;;;5.18;90.67;103676.69;4960606;28;20037;-94
2021/12/16 09:16:33;;;;;;;62.35;21.90;;;;;;;5.23;90.81;103680.34;4969294;28;20018;-94
2021/12/16 09:19:00;;;;;;;46.38;21.95;;;;;;;5.34;91.22;103691.13;4975673;28;20507;-94
2021/12/16 09:21:30;;;;;;;64.95;23.88;;;;;;;5.35;91.39;103688.63;4963105;28;20033;-94
2021/12/16 09:23:58;;;;;;;51.72;23.55;;;;;;;5.45;91.36;103697.63;4940863;28;20104;-93
2021/12/16 09:26:26;;;;;;;79.32;26.55;;;;;;;5.48;92.01;103690.00;4959007;28;20464;-95
2021/12/16 09:28:53;;;;;;;86.93;29.98;;;;;;;5.60;92.46;103699.97;4978640;28;20030;-94
2021/12/16 09:31:21;;;;;;;90.10;32.28;;;;;;;5.65;92.54;103687.22;4957501;28;20089;-93
2021/12/16 09:33:51;;;;;;;96.75;31.38;;;;;;;5.69;92.30;103694.28;4958015;28;20022;-94
2021/12/16 09:36:19;;;;;;;80.53;33.20;;;;;;;5.75;92.83;103695.41;4957844;28;20030;-93
2021/12/16 09:38:46;;;;;;;78.32;33.67;;;;;;;5.78;93.22;103680.03;4961627;28;20023;-93
2021/12/16 09:41:12;;;;;;;68.15;35.88;;;;;;;5.96;93.26;103683.31;4975078;28;20033;-93
2021/12/16 09:43:40;;;;;;;73.05;39.13;;;;;;;6.01;93.44;103695.63;4958837;28;20023;-93
2021/12/16 09:46:10;;;;;;;71.15;40.35;;;;;;;6.11;93.79;103698.56;4968247;28;20142;-93
2021/12/16 09:48:37;;;;;;;67.22;40.45;;;;;;;6.17;93.73;103679.00;4985088;28;20034;-93
2021/12/16 09:51:05;;;;;;;66.05;42.75;;;;;;;6.32;94.01;103688.19;4959868;28;20026;-93
2021/12/16 09:53:33;;;;;;;71.57;46.90;;;;;;;6.37;93.90;103686.63;4959801;28;20026;-90
2021/12/16 09:56:00;;;;;;;76.72;48.97;;;;;;;6.44;94.11;103683.47;4957373;28;20113;-90
2021/12/16 09:58:29;;;;;;;73.88;49.38;;;;;;;6.43;94.43;103676.53;4973350;28;20047;-90
2021/12/16 10:00:55;;;;;;;77.25;49.97;;;;;;;6.56;94.37;103687.31;4966327;28;20419;-90
2021/12/16 10:03:21;;;;;;;82.13;50.47;;;;;;;6.59;94.39;103683.13;4973469;28;20031;-91
2021/12/16 10:05:47;;;;;;;80.45;48.95;;;;;;;6.67;94.59;103686.00;4958928;28;20048;-92
2021/12/16 10:08:13;;;;;;;73.38;46.78;;;;;;;6.68;94.40;103682.59;4956527;28;20112;-91
2021/12/16 10:10:40;;;;;;;73.25;47.15;;;;;;;6.71;94.47;103677.53;4973035;28;20511;-91
2021/12/16 10:13:06;;;;;;;82.32;48.20;;;;;;;6.76;94.50;103686.34;4974736;28;20026;-91
2021/12/16 10:18:03;;;;;;;68.45;47.10;;;;;;;6.81;94.53;103687.41;4972571;28;20030;-92
2021/12/16 10:20:34;;;;;;;69.18;46.22;;;;;;;6.83;94.88;103683.16;4955062;28;20033;-91
2021/12/16 10:23:08;;;;;;;76.65;49.80;;;;;;;6.85;94.89;103670.28;4955181;28;20027;-92
2021/12/16 10:25:40;;;;;;;76.80;49.70;;;;;;;6.95;94.97;103682.72;4973644;28;20134;-92
2021/12/16 10:28:25;;;;;;;;;;;;;;;7.07;94.96;103686.56;4991856;28;20027;-92
2021/12/16 10:31:05;;;;;;;72.28;48.13;;;;;;;7.07;95.11;103679.69;4992296;28;19914;-90
2021/12/16 10:33:44;;;;;;;76.68;49.88;;;;;;;7.11;95.40;103688.41;4992197;28;20101;-88
2021/12/16 10:36:12;;;;;;;71.28;48.50;;;;;;;7.14;95.45;103679.06;4974058;28;20042;-86
2021/12/16 10:38:57;;;;;;;73.82;49.08;;;;;;;7.20;95.59;103680.09;4983041;28;20023;-90
2021/12/16 10:41:34;;;;;;;80.57;50.95;;;;;;;7.27;95.45;103687.25;4959113;28;20026;-86
2021/12/16 10:44:19;;;;;;;76.30;51.50;;;;;;;7.29;95.81;103677.84;4979037;28;20046;-86
2021/12/16 10:46:46;;;;;;;79.72;52.38;;;;;;;7.38;95.75;103688.47;4974699;28;20047;-88
2021/12/16 10:49:16;;;;;;;81.60;52.60;;;;;;;7.41;95.79;103696.38;4982810;28;20027;-86
2021/12/16 10:51:45;;;;;;;73.53;49.70;;;;;;;7.44;95.87;103699.06;4977679;28;20031;-89
2021/12/16 10:54:23;;;;;;;70.72;48.40;;;;;;;7.48;95.65;103700.03;4979209;28;20764;-90
2021/12/16 10:57:09;;;;;;;65.70;44.80;;;;;;;7.46;95.58;103687.88;4955316;28;20501;-90
2021/12/16 10:59:36;;;;;;;62.45;43.63;;;;;;;7.58;95.19;103706.41;4955944;28;20042;-90
2021/12/16 11:02:07;;;;;;;60.28;42.05;;;;;;;7.61;95.10;103709.09;4976132;28;20098;-91
2021/12/16 11:04:36;;;;;;;64.07;43.53;;;;;;;7.57;95.28;103702.94;4978069;28;20054;-90
2021/12/16 11:07:08;;;;;;;55.75;38.65;;;;;;;7.69;95.00;103712.81;4980967;28;20030;-91
2021/12/16 11:09:39;;;;;;;56.53;38.50;;;;;;;7.70;94.98;103711.97;4957546;28;20050;-90
2021/12/16 11:12:38;;;;;;;59.55;40.05;;;;;;;7.82;94.83;103715.81;4977030;28;20057;-90
2021/12/16 11:15:36;;;;;;;58.63;39.35;;;;;;;7.91;94.90;103721.28;4964996;28;20121;-89
2021/12/16 11:18:14;;;;;;;55.60;39.35;;;;;;;8.00;94.70;103721.59;4975430;28;20052;-90
2021/12/16 11:20:52;;;;;;;53.50;37.10;;;;;;;8.08;94.56;103719.25;4972705;28;20367;-89
2021/12/16 11:23:26;;;;;;;53.67;35.40;;;;;;;8.16;94.10;103714.31;4956087;28;20071;-90
2021/12/16 11:25:53;;;;;;;48.95;32.97;;;;;;;8.18;93.40;103710.91;4974355;28;20027;-90
2021/12/16 11:28:23;;;;;;;46.42;32.13;;;;;;;8.30;93.09;103710.41;4980711;28;20040;-90
2021/12/16 11:31:00;;;;;;;45.83;33.13;;;;;;;8.33;93.38;103720.88;4974284;28;20027;-90
2021/12/16 11:33:34;;;;;;;46.08;31.50;;;;;;;8.41;92.86;103712.44;4972680;28;20093;-90
2021/12/16 11:36:08;;;;;;;40.95;29.60;;;;;;;8.52;92.78;103721.47;4975180;28;20033;-90
2021/12/16 11:38:48;;;;;;;43.50;29.80;;;;;;;8.62;92.63;103712.22;4975871;28;20035;-90
2021/12/16 11:41:13;;;;;;;43.03;29.02;;;;;;;8.70;92.53;103710.72;4971939;28;20484;-90
2021/12/16 11:43:50;;;;;;;36.53;26.50;;;;;;;8.67;91.77;103705.44;4981796;28;20030;-90
2021/12/16 11:46:25;;;;;;;37.13;25.38;;;;;;;8.70;91.86;103699.47;4981445;28;20054;-90
2021/12/16 11:48:59;;;;;;;37.28;25.23;;;;;;;8.77;91.57;103704.00;4971727;28;20109;-89
2021/12/16 11:51:38;;;;;;;30.92;22.35;;;;;;;8.78;90.88;103697.97;4982168;28;20026;-90
2021/12/16 11:54:13;;;;;;;33.35;22.48;;;;;;;8.78;90.74;103695.38;4975989;28;20114;-89
2021/12/16 11:56:49;;;;;;;36.50;22.80;;;;;;;8.79;90.88;103695.44;4974270;28;20121;-90
2021/12/16 11:59:35;;;;;;;36.05;23.40;;;;;;;8.79;90.00;103678.94;4972897;28;20169;-90
2021/12/16 12:02:01;;;;;;;35.10;23.05;;;;;;;8.84;90.14;103687.75;4978235;28;20117;-90
2021/12/16 12:04:32;;;;;;;33.97;21.98;;;;;;;8.89;89.73;103686.16;4978145;28;20495;-90
2021/12/16 12:07:00;;;;;;;31.83;21.42;;;;;;;8.95;89.68;103681.13;4977258;28;20030;-90
2021/12/16 12:09:43;;;;;;;31.25;20.70;;;;;;;9.00;88.72;103685.56;4982377;28;20030;-90
2021/12/16 12:12:11;;;;;;;29.48;19.98;;;;;;;9.04;88.63;103672.72;4977085;28;20034;-90
2021/12/16 12:14:37;;;;;;;32.13;21.02;;;;;;;9.13;88.84;103677.25;4978879;28;20027;-90
2021/12/16 12:17:12;;;;;;;30.75;21.77;;;;;;;9.21;88.35;103672.25;4979902;28;20050;-91
2021/12/16 12:19:49;;;;;;;30.80;20.80;;;;;;;9.27;87.81;103673.28;4981564;28;20029;-90
2021/12/16 12:22:20;;;;;;;27.95;19.10;;;;;;;9.33;87.26;103666.50;4978807;28;20038;-91
2021/12/16 12:24:46;;;;;;;30.55;19.35;;;;;;;9.33;87.12;103676.91;4977776;28;20042;-90
2021/12/16 12:27:17;;;;;;;34.78;22.63;;;;;;;9.42;87.24;103671.91;4976620;28;20064;-91
2021/12/16 12:29:49;;;;;;;28.63;20.08;;;;;;;9.43;86.79;103663.28;4980551;28;20489;-90
2021/12/16 12:32:22;;;;;;;30.90;20.55;;;;;;;9.47;86.90;103670.31;4978877;28;20089;-89
2021/12/16 12:34:54;;;;;;;30.30;19.02;;;;;;;9.48;86.08;103666.88;4977558;28;20110;-90
2021/12/16 12:37:22;;;;;;;35.30;18.40;;;;;;;9.57;86.24;103672.28;4975133;28;20467;-90
2021/12/16 12:39:52;;;;;;;29.48;18.88;;;;;;;9.59;85.73;103681.84;4961769;28;20041;-90
2021/12/16 12:42:18;;;;;;;29.52;19.98;;;;;;;9.64;85.98;103680.25;4966753;28;20464;-90
2021/12/16 12:44:44;;;;;;;29.30;20.45;;;;;;;9.71;86.12;103679.56;4964028;28;20340;-90
2021/12/16 12:47:14;;;;;;;34.22;20.45;;;;;;;9.80;86.08;103674.56;4976376;28;20102;-90
2021/12/16 12:49:39;;;;;;;37.72;20.83;;;;;;;9.84;85.49;103681.59;4972932;28;20022;-90
2021/12/16 12:52:10;;;;;;;28.65;19.35;;;;;;;9.92;84.92;103684.38;4978292;28;20037;-90
2021/12/16 12:54:42;;;;;;;34.63;20.03;;;;;;;10.01;84.96;103683.72;4978929;28;20062;-91
2021/12/16 12:57:29;;;;;;;24.98;17.08;;;;;;;10.07;84.24;103683.88;4962313;28;20033;-91
2021/12/16 12:59:57;;;;;;;25.52;16.10;;;;;;;10.10;83.04;103685.63;4978273;28;20038;-91
2021/12/16 13:02:29;;;;;;;24.88;15.80;;;;;;;10.08;82.69;103674.31;4979665;28;20022;-92
2021/12/16 13:05:19;;;;;;;21.80;14.00;;;;;;;10.19;82.46;103678.03;4959027;28;20502;-91
2021/12/16 13:08:07;;;;;;;20.63;13.27;;;;;;;10.23;82.43;103679.00;4975821;28;20027;-91
2021/12/16 13:10:51;;;;;;;19.67;13.00;;;;;;;10.17;81.33;103675.41;4977958;28;20062;-90
2021/12/16 13:16:57;;;;;;;22.38;16.80;;;;;;;10.24;82.44;103671.19;4978893;28;20037;-90
2021/12/16 13:30:15;;;;;;;23.67;16.48;;;;;;;10.42;81.34;103680.28;4978092;28;20046;-90
2021/12/16 13:32:53;;;;;;;22.30;15.57;;;;;;;10.42;80.82;103675.94;4976049;28;20518;-90
2021/12/16 13:35:35;;;;;;;23.08;15.40;;;;;;;10.63;80.15;103688.53;4977992;28;20023;-90
2021/12/16 13:38:08;;;;;;;26.70;15.57;;;;;;;10.73;79.66;103687.00;4975872;28;20496;-90
2021/12/16 13:40:37;;;;;;;21.83;14.77;;;;;;;10.83;79.17;103688.06;4960255;28;20027;-90
2021/12/16 13:43:22;;;;;;;24.98;15.25;;;;;;;10.85;79.95;103680.25;4977886;28;20038;-90
2021/12/16 14:03:42;;;;;;;19.88;14.48;;;;;;;11.60;76.09;103685.00;4975155;28;20041;-89
2021/12/16 14:06:27;;;;;;;19.38;14.30;;;;;;;11.48;76.91;103693.50;4966835;28;20132;-90
2021/12/16 14:08:54;;;;;;;23.73;14.60;;;;;;;11.57;76.04;103680.63;4977457;28;20046;-89
2021/12/16 14:17:42;;;;;;;22.67;15.63;;;;;;;11.32;77.81;103697.59;4977058;28;20037;-90
2021/12/16 14:23:08;;;;;;;22.90;14.70;;;;;;;11.14;77.11;103693.81;4977633;28;20133;-90
2021/12/16 14:37:14;;;;;;;19.55;14.05;;;;;;;10.66;77.89;103715.47;4968094;28;20118;-90
2021/12/16 14:48:04;;;;;;;24.88;15.15;;;;;;;10.50;78.62;103709.06;4977282;28;20034;-90
2021/12/16 14:50:40;;;;;;;25.70;15.05;;;;;;;10.42;79.38;103714.13;4958320;28;20027;-90
2021/12/16 14:53:20;;;;;;;21.45;14.55;;;;;;;10.36;79.72;103712.22;4975186;28;20026;-90
2021/12/16 14:55:48;;;;;;;22.17;15.13;;;;;;;10.33;79.51;103722.56;4972936;28;20022;-90
2021/12/16 14:58:14;;;;;;;20.25;15.10;;;;;;;10.23;79.67;103725.81;4976736;28;20018;-90